Home   Weather   Ukraine   Kyiv   Past weeks
Flag for Ukraine

Past Weather in Kyiv, Ukraine — Yesterday and Last 2 Weeks

Currently: 54 °F. Passing clouds. (Weather station: Kyiv, Ukraine). See more current weather

Past Weather in Kyiv — Graph

°F

Kyiv Temperature Yesterday

Maximum temperature yesterday: 70 °F (at 3:30 pm)
Minimum temperature yesterday: 37 °F (at 12:00 am)
Average temperature yesterday: 57 °F

High & Low Weather Summary for the Past Weeks

 TemperatureHumidityPressure
High72 °F (May 1, 6:30 pm)100% (Apr 23, 12:00 am)30.12 "Hg (Apr 23, 12:00 am)
Low27 °F (Apr 28, 5:00 am)28% (Apr 28, 7:00 pm)29.62 "Hg (May 3, 12:00 am)
Average49 °F65%29.93 "Hg
* Reported Apr 21 4:00 am — May 6 4:00 am, Kyiv. Weather by CustomWeather, © 2021

Note: Actual official high and low records may vary slightly from our data, if they occured in-between our weather recording intervals... More about our weather records

Kyiv Weather History for the Previous 24 Hours

Scroll right to see more
 ConditionsComfort  
Time TempWeatherWind HumidityBarometerVisibility
4:00 am
Thu, May 6
54 °FPassing clouds.8 mph63%29.65 "HgN/A
3:30 am55 °FPassing clouds.10 mph59%29.68 "HgN/A
3:00 am55 °FPassing clouds.10 mph63%29.68 "HgN/A
2:30 am55 °FPassing clouds.10 mph63%29.68 "HgN/A
2:00 am57 °FPassing clouds.10 mph59%29.68 "HgN/A
1:30 am57 °FPassing clouds.13 mph59%29.71 "HgN/A
12:30 am59 °FPassing clouds.13 mph55%29.71 "HgN/A
12:00 am59 °FPassing clouds.13 mph55%29.71 "HgN/A
11:30 pm
Wed, May 5
61 °FPassing clouds.13 mph52%29.71 "HgN/A
11:00 pm61 °FPassing clouds.13 mph52%29.71 "HgN/A
10:30 pm61 °FPassing clouds.8 mph52%29.71 "HgN/A
10:00 pm63 °FPassing clouds.10 mph49%29.71 "HgN/A
9:30 pm63 °FPassing clouds.10 mph49%29.71 "HgN/A
9:00 pm63 °FPassing clouds.8 mph49%29.71 "HgN/A
8:30 pm64 °FPassing clouds.8 mph49%29.71 "HgN/A
8:00 pm64 °FPassing clouds.6 mph43%29.71 "HgN/A
7:30 pm66 °FPassing clouds.10 mph40%29.71 "HgN/A
7:00 pm66 °FSunny.10 mph43%29.71 "Hg10 mi
6:30 pm68 °FPassing clouds.13 mph38%29.71 "HgN/A
6:00 pm68 °FPassing clouds.10 mph38%29.74 "HgN/A
5:30 pm68 °FPassing clouds.10 mph38%29.74 "HgN/A
5:00 pm68 °FPassing clouds.13 mph35%29.74 "HgN/A
4:30 pm68 °FPassing clouds.15 mph33%29.74 "HgN/A
4:00 pm68 °FPassing clouds.15 mph33%29.77 "HgN/A
3:30 pm70 °FPassing clouds.13 mph33%29.77 "HgN/A
3:00 pm68 °FPassing clouds.15 mph33%29.77 "HgN/A
2:30 pm66 °FPassing clouds.15 mph37%29.77 "HgN/A
2:00 pm66 °FPassing clouds.10 mph40%29.80 "HgN/A
1:30 pm64 °FPassing clouds.13 mph46%29.80 "HgN/A
1:00 pm64 °FPassing clouds.13 mph49%29.80 "HgN/A
12:30 pm63 °FPassing clouds.10 mph52%29.80 "HgN/A
12:00 pm63 °FPassing clouds.13 mph56%29.80 "HgN/A
11:30 am63 °FPassing clouds.8 mph52%29.83 "HgN/A
11:00 am63 °FPassing clouds.10 mph52%29.83 "HgN/A
10:30 am61 °FPassing clouds.10 mph55%29.83 "HgN/A
10:00 am61 °FPassing clouds.8 mph52%29.83 "HgN/A
9:30 am59 °FPassing clouds.10 mph51%29.83 "HgN/A
9:00 am57 °FPassing clouds.8 mph51%29.83 "HgN/A
8:30 am55 °FPassing clouds.6 mph51%29.86 "HgN/A
8:00 am54 °FSunny.8 mph51%29.86 "Hg10 mi
7:30 am52 °FSunny.8 mph50%29.86 "Hg10 mi
7:00 am48 °FSunny.6 mph58%29.86 "Hg10 mi
6:30 am46 °FSunny.8 mph62%29.86 "Hg10 mi
6:00 am45 °FPassing clouds.8 mph61%29.86 "HgN/A
5:30 am45 °FPassing clouds.8 mph57%29.86 "HgN/A
5:00 am45 °FPassing clouds.8 mph57%29.89 "HgN/A
Weather by CustomWeather, © 2021

See weather overview